sensor_id;sensor_type;location;lat;lon;timestamp;pressure;altitude;pressure_sealevel;temperature;humidity
35489;BME280;21602;55.670;37.578;2023-04-27T00:00:47;98443.53;;;13.03;68.01
35489;BME280;21602;55.670;37.578;2023-04-27T00:03:13;98445.69;;;13.01;67.95
35489;BME280;21602;55.670;37.578;2023-04-27T00:05:38;98438.72;;;13.00;68.24
35489;BME280;21602;55.670;37.578;2023-04-27T00:08:05;98450.78;;;12.97;68.40
35489;BME280;21602;55.670;37.578;2023-04-27T00:10:31;98440.88;;;12.98;68.53
35489;BME280;21602;55.670;37.578;2023-04-27T00:12:57;98451.88;;;12.96;68.95
35489;BME280;21602;55.670;37.578;2023-04-27T00:15:23;98448.91;;;12.98;69.17
35489;BME280;21602;55.670;37.578;2023-04-27T00:17:49;98463.09;;;12.98;69.13
35489;BME280;21602;55.670;37.578;2023-04-27T00:20:16;98457.22;;;12.96;69.10
35489;BME280;21602;55.670;37.578;2023-04-27T00:22:43;98456.94;;;12.93;69.22
35489;BME280;21602;55.670;37.578;2023-04-27T00:25:09;98455.09;;;12.88;69.21
35489;BME280;21602;55.670;37.578;2023-04-27T00:27:36;98457.22;;;12.86;69.20
35489;BME280;21602;55.670;37.578;2023-04-27T00:30:04;98463.41;;;12.87;69.71
35489;BME280;21602;55.670;37.578;2023-04-27T00:32:33;98457.22;;;12.86;69.38
35489;BME280;21602;55.670;37.578;2023-04-27T00:34:59;98455.09;;;12.88;69.49
35489;BME280;21602;55.670;37.578;2023-04-27T00:37:25;98453.72;;;12.91;69.67
35489;BME280;21602;55.670;37.578;2023-04-27T00:39:51;98445.44;;;12.92;69.58
35489;BME280;21602;55.670;37.578;2023-04-27T00:42:17;98450.50;;;12.94;69.84
35489;BME280;21602;55.670;37.578;2023-04-27T00:44:45;98454.00;;;12.94;68.78
35489;BME280;21602;55.670;37.578;2023-04-27T00:47:12;98446.50;;;12.91;68.10
35489;BME280;21602;55.670;37.578;2023-04-27T00:49:39;98446.75;;;12.95;67.71
35489;BME280;21602;55.670;37.578;2023-04-27T00:52:06;98448.91;;;12.98;67.60
35489;BME280;21602;55.670;37.578;2023-04-27T00:54:32;98455.34;;;13.02;68.60
35489;BME280;21602;55.670;37.578;2023-04-27T00:56:58;98459.59;;;13.03;68.77
35489;BME280;21602;55.670;37.578;2023-04-27T00:59:24;98454.25;;;12.98;68.72
35489;BME280;21602;55.670;37.578;2023-04-27T01:01:51;98461.75;;;12.91;68.94
35489;BME280;21602;55.670;37.578;2023-04-27T01:04:18;98460.16;;;12.85;68.99
35489;BME280;21602;55.670;37.578;2023-04-27T01:06:45;98460.19;;;12.79;69.08
35489;BME280;21602;55.670;37.578;2023-04-27T01:09:11;98462.34;;;12.77;69.18
35489;BME280;21602;55.670;37.578;2023-04-27T01:11:37;98457.22;;;12.76;69.55
35489;BME280;21602;55.670;37.578;2023-04-27T01:14:05;98460.69;;;12.76;69.65
35489;BME280;21602;55.670;37.578;2023-04-27T01:16:33;98455.63;;;12.75;69.41
35489;BME280;21602;55.670;37.578;2023-04-27T01:18:58;98456.44;;;12.75;69.16
35489;BME280;21602;55.670;37.578;2023-04-27T01:21:25;98456.72;;;12.74;68.75
35489;BME280;21602;55.670;37.578;2023-04-27T01:23:52;98459.09;;;12.75;68.63
35489;BME280;21602;55.670;37.578;2023-04-27T01:26:18;98448.94;;;12.77;68.77
35489;BME280;21602;55.670;37.578;2023-04-27T01:28:44;98449.47;;;12.79;68.95
35489;BME280;21602;55.670;37.578;2023-04-27T01:31:11;98449.97;;;12.81;69.12
35489;BME280;21602;55.670;37.578;2023-04-27T01:33:38;98447.84;;;12.84;69.33
35489;BME280;21602;55.670;37.578;2023-04-27T01:36:07;98450.81;;;12.82;69.11
35489;BME280;21602;55.670;37.578;2023-04-27T01:38:34;98446.78;;;12.79;69.17
35489;BME280;21602;55.670;37.578;2023-04-27T01:41:03;98443.59;;;12.77;68.22
35489;BME280;21602;55.670;37.578;2023-04-27T01:43:30;98446.78;;;12.79;67.81
35489;BME280;21602;55.670;37.578;2023-04-27T01:46:13;98444.91;;;12.85;67.59
35489;BME280;21602;55.670;37.578;2023-04-27T01:48:40;98448.13;;;12.87;67.84
35489;BME280;21602;55.670;37.578;2023-04-27T01:51:06;98440.88;;;12.93;67.54
35489;BME280;21602;55.670;37.578;2023-04-27T01:53:32;98448.91;;;12.98;67.35
35489;BME280;21602;55.670;37.578;2023-04-27T01:55:58;98453.72;;;13.01;67.25
35489;BME280;21602;55.670;37.578;2023-04-27T01:58:25;98447.28;;;13.02;67.13
35489;BME280;21602;55.670;37.578;2023-04-27T02:00:52;98451.31;;;12.99;67.37
35489;BME280;21602;55.670;37.578;2023-04-27T02:03:19;98464.97;;;12.98;67.56
35489;BME280;21602;55.670;37.578;2023-04-27T02:05:45;98464.44;;;12.96;67.52
35489;BME280;21602;55.670;37.578;2023-04-27T02:08:13;98470.06;;;12.94;67.70
35489;BME280;21602;55.670;37.578;2023-04-27T02:10:39;98460.44;;;12.93;67.70
35489;BME280;21602;55.670;37.578;2023-04-27T02:13:05;98460.94;;;12.95;67.49
35489;BME280;21602;55.670;37.578;2023-04-27T02:15:31;98464.97;;;12.98;67.53
35489;BME280;21602;55.670;37.578;2023-04-27T02:17:56;98474.09;;;13.02;67.65
35489;BME280;21602;55.670;37.578;2023-04-27T02:20:24;98476.75;;;13.07;67.71
35489;BME280;21602;55.670;37.578;2023-04-27T02:22:52;98485.06;;;13.11;68.20
35489;BME280;21602;55.670;37.578;2023-04-27T02:25:18;98482.09;;;13.12;68.75
35489;BME280;21602;55.670;37.578;2023-04-27T02:27:46;98481.56;;;13.10;68.53
35489;BME280;21602;55.670;37.578;2023-04-27T02:30:13;98479.69;;;13.11;68.58
35489;BME280;21602;55.670;37.578;2023-04-27T02:32:40;98483.69;;;13.13;68.85
35489;BME280;21602;55.670;37.578;2023-04-27T02:35:07;98486.94;;;13.15;68.58
35489;BME280;21602;55.670;37.578;2023-04-27T02:37:33;98481.56;;;13.20;67.95
35489;BME280;21602;55.670;37.578;2023-04-27T02:39:59;98491.47;;;13.30;67.76
35489;BME280;21602;55.670;37.578;2023-04-27T02:42:26;98493.34;;;13.35;67.84
35489;BME280;21602;55.670;37.578;2023-04-27T02:44:54;98488.78;;;13.35;67.98
35489;BME280;21602;55.670;37.578;2023-04-27T02:47:20;98485.31;;;13.35;68.14
35489;BME280;21602;55.670;37.578;2023-04-27T02:49:46;98496.03;;;13.35;68.17
35489;BME280;21602;55.670;37.578;2023-04-27T02:52:12;98499.75;;;13.33;68.02
35489;BME280;21602;55.670;37.578;2023-04-27T02:54:38;98499.22;;;13.37;68.06
35489;BME280;21602;55.670;37.578;2023-04-27T02:57:04;98499.50;;;13.40;67.79
35489;BME280;21602;55.670;37.578;2023-04-27T02:59:30;98508.31;;;13.46;67.47
35489;BME280;21602;55.670;37.578;2023-04-27T03:01:56;98506.16;;;13.48;66.56
35489;BME280;21602;55.670;37.578;2023-04-27T03:04:22;98514.19;;;13.53;66.79
35489;BME280;21602;55.670;37.578;2023-04-27T03:06:48;98514.44;;;13.56;66.76
35489;BME280;21602;55.670;37.578;2023-04-27T03:09:14;98517.41;;;13.60;66.83
35489;BME280;21602;55.670;37.578;2023-04-27T03:11:40;98519.28;;;13.60;66.85
35489;BME280;21602;55.670;37.578;2023-04-27T03:14:06;98519.56;;;13.58;67.04
35489;BME280;21602;55.670;37.578;2023-04-27T03:16:34;98523.28;;;13.57;67.71
35489;BME280;21602;55.670;37.578;2023-04-27T03:19:00;98526.53;;;13.54;67.94
35489;BME280;21602;55.670;37.578;2023-04-27T03:21:27;98527.06;;;13.51;67.76
35489;BME280;21602;55.670;37.578;2023-04-27T03:23:53;98531.63;;;13.50;68.00
35489;BME280;21602;55.670;37.578;2023-04-27T03:26:19;98538.59;;;13.51;68.18
35489;BME280;21602;55.670;37.578;2023-04-27T03:28:46;98540.19;;;13.52;67.99
35489;BME280;21602;55.670;37.578;2023-04-27T03:31:13;98541.81;;;13.53;67.38
35489;BME280;21602;55.670;37.578;2023-04-27T03:33:40;98532.94;;;13.53;67.10
35489;BME280;21602;55.670;37.578;2023-04-27T03:36:06;98539.38;;;13.57;66.60
35489;BME280;21602;55.670;37.578;2023-04-27T03:38:33;98538.84;;;13.65;66.32
35489;BME280;21602;55.670;37.578;2023-04-27T03:41:00;98535.84;;;13.77;66.01
35489;BME280;21602;55.670;37.578;2023-04-27T03:43:26;98540.91;;;13.89;65.59
35489;BME280;21602;55.670;37.578;2023-04-27T03:45:52;98549.69;;;13.99;64.97
35489;BME280;21602;55.670;37.578;2023-04-27T03:48:19;98542.94;;;14.12;64.64
35489;BME280;21602;55.670;37.578;2023-04-27T03:50:46;98547.97;;;14.24;64.15
35489;BME280;21602;55.670;37.578;2023-04-27T03:53:12;98546.31;;;14.33;64.15
35489;BME280;21602;55.670;37.578;2023-04-27T03:55:43;98556.22;;;14.38;63.82
35489;BME280;21602;55.670;37.578;2023-04-27T03:58:10;98549.22;;;14.42;63.74
35489;BME280;21602;55.670;37.578;2023-04-27T04:00:43;98545.19;;;14.49;63.83
35489;BME280;21602;55.670;37.578;2023-04-27T04:03:10;98552.13;;;14.55;63.66
35489;BME280;21602;55.670;37.578;2023-04-27T04:05:37;98556.91;;;14.64;63.70
35489;BME280;21602;55.670;37.578;2023-04-27T04:08:04;98557.13;;;14.72;63.67
35489;BME280;21602;55.670;37.578;2023-04-27T04:10:31;98560.56;;;14.78;63.32
35489;BME280;21602;55.670;37.578;2023-04-27T04:12:57;98558.69;;;14.78;63.05
35489;BME280;21602;55.670;37.578;2023-04-27T04:15:23;98567.22;;;14.85;63.08
35489;BME280;21602;55.670;37.578;2023-04-27T04:17:50;98567.72;;;14.93;62.80
35489;BME280;21602;55.670;37.578;2023-04-27T04:20:17;98569.84;;;14.96;62.73
35489;BME280;21602;55.670;37.578;2023-04-27T04:22:43;98570.88;;;15.00;62.66
35489;BME280;21602;55.670;37.578;2023-04-27T04:25:10;98569.19;;;15.09;62.66
35489;BME280;21602;55.670;37.578;2023-04-27T04:27:38;98572.59;;;15.20;62.42
35489;BME280;21602;55.670;37.578;2023-04-27T04:30:05;98573.31;;;15.30;62.38
35489;BME280;21602;55.670;37.578;2023-04-27T04:32:34;98571.59;;;15.40;62.02
35489;BME280;21602;55.670;37.578;2023-04-27T04:35:04;98575.84;;;15.46;61.98
35489;BME280;21602;55.670;37.578;2023-04-27T04:37:34;98572.06;;;15.47;61.46
35489;BME280;21602;55.670;37.578;2023-04-27T04:40:06;98572.59;;;15.49;61.34
35489;BME280;21602;55.670;37.578;2023-04-27T04:42:35;98574.13;;;15.55;61.33
35489;BME280;21602;55.670;37.578;2023-04-27T04:45:02;98574.63;;;15.62;61.07
35489;BME280;21602;55.670;37.578;2023-04-27T04:47:31;98582.59;;;15.72;60.81
35489;BME280;21602;55.670;37.578;2023-04-27T04:49:57;98576.00;;;15.83;60.18
35489;BME280;21602;55.670;37.578;2023-04-27T04:52:24;98572.09;;;15.95;59.83
35489;BME280;21602;55.670;37.578;2023-04-27T04:54:55;98585.50;;;16.00;58.63
35489;BME280;21602;55.670;37.578;2023-04-27T04:57:21;98584.72;;;15.99;58.88
35489;BME280;21602;55.670;37.578;2023-04-27T04:59:47;98584.38;;;16.06;58.67
35489;BME280;21602;55.670;37.578;2023-04-27T05:02:13;98584.75;;;16.18;58.24
35489;BME280;21602;55.670;37.578;2023-04-27T05:04:39;98586.44;;;16.33;60.88
35489;BME280;21602;55.670;37.578;2023-04-27T05:07:05;98585.47;;;16.48;59.42
35489;BME280;21602;55.670;37.578;2023-04-27T05:09:31;98584.78;;;16.56;59.96
35489;BME280;21602;55.670;37.578;2023-04-27T05:12:00;98595.38;;;16.71;59.04
35489;BME280;21602;55.670;37.578;2023-04-27T05:14:26;98591.16;;;16.84;57.96
35489;BME280;21602;55.670;37.578;2023-04-27T05:16:57;98598.28;;;16.94;56.59
35489;BME280;21602;55.670;37.578;2023-04-27T05:19:23;98590.63;;;17.01;56.70
35489;BME280;21602;55.670;37.578;2023-04-27T05:21:50;98593.75;;;17.08;56.10
35489;BME280;21602;55.670;37.578;2023-04-27T05:24:16;98593.88;;;17.17;56.24
35489;BME280;21602;55.670;37.578;2023-04-27T05:26:43;98600.41;;;17.29;55.69
35489;BME280;21602;55.670;37.578;2023-04-27T05:29:09;98591.84;;;17.41;55.50
35489;BME280;21602;55.670;37.578;2023-04-27T05:31:36;98598.16;;;17.50;55.28
35489;BME280;21602;55.670;37.578;2023-04-27T05:34:02;98605.06;;;17.56;55.08
35489;BME280;21602;55.670;37.578;2023-04-27T05:36:28;98605.88;;;17.57;55.00
35489;BME280;21602;55.670;37.578;2023-04-27T05:38:54;98608.50;;;17.62;54.78
35489;BME280;21602;55.670;37.578;2023-04-27T05:41:20;98601.41;;;17.66;54.30
35489;BME280;21602;55.670;37.578;2023-04-27T05:43:46;98594.91;;;17.67;53.94
35489;BME280;21602;55.670;37.578;2023-04-27T05:46:13;98598.88;;;17.70;53.65
35489;BME280;21602;55.670;37.578;2023-04-27T05:48:39;98600.72;;;17.74;53.52
35489;BME280;21602;55.670;37.578;2023-04-27T05:51:05;98593.53;;;17.83;52.90
35489;BME280;21602;55.670;37.578;2023-04-27T05:53:41;98600.44;;;17.89;52.50
35489;BME280;21602;55.670;37.578;2023-04-27T05:56:07;98604.94;;;17.94;51.93
35489;BME280;21602;55.670;37.578;2023-04-27T05:58:33;98604.13;;;17.94;51.54
35489;BME280;21602;55.670;37.578;2023-04-27T06:01:00;98603.13;;;17.89;51.44
35489;BME280;21602;55.670;37.578;2023-04-27T06:03:28;98601.94;;;17.96;51.30
35489;BME280;21602;55.670;37.578;2023-04-27T06:05:56;98604.66;;;17.96;50.68
35489;BME280;21602;55.670;37.578;2023-04-27T06:08:23;98602.75;;;17.96;50.42
35489;BME280;21602;55.670;37.578;2023-04-27T06:10:49;98606.34;;;17.91;50.06
35489;BME280;21602;55.670;37.578;2023-04-27T06:13:16;98606.44;;;17.86;49.95
35489;BME280;21602;55.670;37.578;2023-04-27T06:15:42;98604.53;;;17.87;50.03
35489;BME280;21602;55.670;37.578;2023-04-27T06:18:08;98613.94;;;17.89;50.06
35489;BME280;21602;55.670;37.578;2023-04-27T06:20:34;98612.34;;;17.88;49.48
35489;BME280;21602;55.670;37.578;2023-04-27T06:23:01;98610.84;;;17.82;49.39
35489;BME280;21602;55.670;37.578;2023-04-27T06:25:27;98611.31;;;17.84;49.26
35489;BME280;21602;55.670;37.578;2023-04-27T06:27:54;98619.94;;;17.86;49.55
35489;BME280;21602;55.670;37.578;2023-04-27T06:30:21;98610.53;;;17.84;49.03
35489;BME280;21602;55.670;37.578;2023-04-27T06:32:53;98615.53;;;17.90;49.27
35489;BME280;21602;55.670;37.578;2023-04-27T06:35:20;98612.75;;;17.96;49.29
35489;BME280;21602;55.670;37.578;2023-04-27T06:37:46;98623.44;;;18.01;48.91
35489;BME280;21602;55.670;37.578;2023-04-27T06:40:12;98626.84;;;18.06;48.52
35489;BME280;21602;55.670;37.578;2023-04-27T06:42:40;98623.34;;;18.06;48.52
35489;BME280;21602;55.670;37.578;2023-04-27T06:45:07;98625.25;;;18.05;48.58
35489;BME280;21602;55.670;37.578;2023-04-27T06:47:33;98621.66;;;18.10;48.70
35489;BME280;21602;55.670;37.578;2023-04-27T06:49:59;98616.16;;;18.15;48.35
35489;BME280;21602;55.670;37.578;2023-04-27T06:52:25;98626.53;;;18.22;48.68
35489;BME280;21602;55.670;37.578;2023-04-27T06:54:52;98623.72;;;18.27;48.41
35489;BME280;21602;55.670;37.578;2023-04-27T06:57:18;98626.53;;;18.35;48.76
35489;BME280;21602;55.670;37.578;2023-04-27T06:59:44;98625.13;;;18.52;48.65
35489;BME280;21602;55.670;37.578;2023-04-27T07:02:10;98621.56;;;18.65;48.79
35489;BME280;21602;55.670;37.578;2023-04-27T07:04:36;98622.47;;;18.74;48.29
35489;BME280;21602;55.670;37.578;2023-04-27T07:07:02;98628.88;;;18.78;48.06
35489;BME280;21602;55.670;37.578;2023-04-27T07:09:28;98625.25;;;18.83;48.20
35489;BME280;21602;55.670;37.578;2023-04-27T07:11:55;98623.75;;;18.90;47.64
35489;BME280;21602;55.670;37.578;2023-04-27T07:14:21;98624.00;;;19.03;47.78
35489;BME280;21602;55.670;37.578;2023-04-27T07:16:47;98618.84;;;19.15;47.10
35489;BME280;21602;55.670;37.578;2023-04-27T07:19:13;98621.91;;;19.22;47.01
35489;BME280;21602;55.670;37.578;2023-04-27T07:21:39;98619.06;;;19.27;47.00
35489;BME280;21602;55.670;37.578;2023-04-27T07:24:05;98617.22;;;19.36;46.51
35489;BME280;21602;55.670;37.578;2023-04-27T07:26:31;98609.16;;;19.45;46.21
35489;BME280;21602;55.670;37.578;2023-04-27T07:28:58;98615.56;;;19.49;45.48
35489;BME280;21602;55.670;37.578;2023-04-27T07:31:24;98618.75;;;19.51;45.30
35489;BME280;21602;55.670;37.578;2023-04-27T07:33:49;98619.44;;;19.57;45.56
35489;BME280;21602;55.670;37.578;2023-04-27T07:36:16;98617.19;;;19.59;45.41
35489;BME280;21602;55.670;37.578;2023-04-27T07:38:42;98626.00;;;19.64;45.63
35489;BME280;21602;55.670;37.578;2023-04-27T07:41:09;98627.31;;;19.67;45.61
35489;BME280;21602;55.670;37.578;2023-04-27T07:43:35;98633.72;;;19.71;45.95
35489;BME280;21602;55.670;37.578;2023-04-27T07:46:01;98634.69;;;19.75;45.86
35489;BME280;21602;55.670;37.578;2023-04-27T07:48:28;98634.84;;;19.79;46.30
35489;BME280;21602;55.670;37.578;2023-04-27T07:50:53;98638.22;;;19.84;46.20
35489;BME280;21602;55.670;37.578;2023-04-27T07:53:20;98635.03;;;19.82;45.98
35489;BME280;21602;55.670;37.578;2023-04-27T07:55:46;98641.06;;;19.79;46.09
35489;BME280;21602;55.670;37.578;2023-04-27T07:58:12;98641.69;;;19.76;46.21
35489;BME280;21602;55.670;37.578;2023-04-27T08:00:37;98636.91;;;19.73;46.12
35489;BME280;21602;55.670;37.578;2023-04-27T08:03:03;98638.50;;;19.74;46.47
35489;BME280;21602;55.670;37.578;2023-04-27T08:05:29;98630.41;;;19.83;46.57
35489;BME280;21602;55.670;37.578;2023-04-27T08:07:55;98638.75;;;19.95;46.46
35489;BME280;21602;55.670;37.578;2023-04-27T08:10:21;98639.75;;;19.99;46.10
35489;BME280;21602;55.670;37.578;2023-04-27T08:12:48;98635.44;;;20.07;46.27
35489;BME280;21602;55.670;37.578;2023-04-27T08:15:14;98640.59;;;20.17;46.07
35489;BME280;21602;55.670;37.578;2023-04-27T08:17:40;98632.81;;;20.24;45.94
35489;BME280;21602;55.670;37.578;2023-04-27T08:20:07;98626.88;;;20.22;45.62
35489;BME280;21602;55.670;37.578;2023-04-27T08:22:37;98636.00;;;20.26;45.82
35489;BME280;21602;55.670;37.578;2023-04-27T08:25:03;98637.63;;;20.27;45.74
35489;BME280;21602;55.670;37.578;2023-04-27T08:27:30;98635.84;;;20.31;46.02
35489;BME280;21602;55.670;37.578;2023-04-27T08:29:56;98627.44;;;20.41;45.72
35489;BME280;21602;55.670;37.578;2023-04-27T08:32:23;98627.28;;;20.46;45.45
35489;BME280;21602;55.670;37.578;2023-04-27T08:34:49;98631.63;;;20.65;45.64
35489;BME280;21602;55.670;37.578;2023-04-27T08:37:15;98629.13;;;20.86;45.15
35489;BME280;21602;55.670;37.578;2023-04-27T08:39:41;98633.91;;;21.06;44.56
35489;BME280;21602;55.670;37.578;2023-04-27T08:42:10;98635.50;;;21.25;44.00
35489;BME280;21602;55.670;37.578;2023-04-27T08:44:41;98629.75;;;21.35;44.02
35489;BME280;21602;55.670;37.578;2023-04-27T08:47:07;98647.63;;;21.36;43.89
35489;BME280;21602;55.670;37.578;2023-04-27T08:49:34;98635.03;;;21.31;43.83
35489;BME280;21602;55.670;37.578;2023-04-27T08:52:00;98634.69;;;21.24;44.50
35489;BME280;21602;55.670;37.578;2023-04-27T08:54:27;98632.31;;;21.05;44.55
35489;BME280;21602;55.670;37.578;2023-04-27T08:56:52;98634.22;;;21.05;45.27
35489;BME280;21602;55.670;37.578;2023-04-27T08:59:18;98642.53;;;21.08;44.94
35489;BME280;21602;55.670;37.578;2023-04-27T09:01:45;98644.91;;;21.10;44.78
35489;BME280;21602;55.670;37.578;2023-04-27T09:04:13;98638.06;;;20.95;44.84
35489;BME280;21602;55.670;37.578;2023-04-27T09:06:40;98641.72;;;20.73;45.30
35489;BME280;21602;55.670;37.578;2023-04-27T09:09:06;98645.19;;;20.48;44.92
35489;BME280;21602;55.670;37.578;2023-04-27T09:11:34;98632.81;;;20.24;45.36
35489;BME280;21602;55.670;37.578;2023-04-27T09:14:02;98643.78;;;20.19;45.85
35489;BME280;21602;55.670;37.578;2023-04-27T09:16:29;98635.66;;;20.19;46.08
35489;BME280;21602;55.670;37.578;2023-04-27T09:18:57;98645.06;;;20.21;45.70
35489;BME280;21602;55.670;37.578;2023-04-27T09:21:29;98636.13;;;20.21;45.66
35489;BME280;21602;55.670;37.578;2023-04-27T09:24:09;98633.44;;;20.21;45.03
35489;BME280;21602;55.670;37.578;2023-04-27T09:26:36;98633.94;;;20.23;44.95
35489;BME280;21602;55.670;37.578;2023-04-27T09:29:02;98622.28;;;20.31;44.25
35489;BME280;21602;55.670;37.578;2023-04-27T09:31:34;98639.72;;;20.39;44.15
35489;BME280;21602;55.670;37.578;2023-04-27T09:34:01;98634.59;;;20.37;44.65
35489;BME280;21602;55.670;37.578;2023-04-27T09:36:29;98634.59;;;20.37;44.99
35489;BME280;21602;55.670;37.578;2023-04-27T09:39:02;98636.50;;;20.45;44.78
35489;BME280;21602;55.670;37.578;2023-04-27T09:41:31;98637.22;;;20.60;44.47
35489;BME280;21602;55.670;37.578;2023-04-27T09:43:57;98645.69;;;20.67;44.03
35489;BME280;21602;55.670;37.578;2023-04-27T09:46:25;98643.94;;;20.62;44.00
35489;BME280;21602;55.670;37.578;2023-04-27T09:48:53;98639.94;;;20.68;44.10
35489;BME280;21602;55.670;37.578;2023-04-27T09:51:20;98635.31;;;20.69;43.50
35489;BME280;21602;55.670;37.578;2023-04-27T09:53:51;98645.19;;;20.65;43.09
35489;BME280;21602;55.670;37.578;2023-04-27T09:56:25;98646.16;;;20.60;43.04
35489;BME280;21602;55.670;37.578;2023-04-27T09:59:35;98649.97;;;20.59;43.70
35489;BME280;21602;55.670;37.578;2023-04-27T10:01:54;98642.97;;;20.67;44.26
35489;BME280;21602;55.670;37.578;2023-04-27T10:07:25;98651.13;;;20.93;43.73
35489;BME280;21602;55.670;37.578;2023-04-27T10:09:52;98637.25;;;20.94;44.21
35489;BME280;21602;55.670;37.578;2023-04-27T10:12:22;98637.56;;;21.02;43.32
35489;BME280;21602;55.670;37.578;2023-04-27T10:17:46;98643.31;;;21.26;43.00
35489;BME280;21602;55.670;37.578;2023-04-27T10:20:13;98641.25;;;21.23;42.94
35489;BME280;21602;55.670;37.578;2023-04-27T10:22:45;98639.66;;;21.13;41.73
35489;BME280;21602;55.670;37.578;2023-04-27T10:25:18;98640.94;;;20.99;41.79
35489;BME280;21602;55.670;37.578;2023-04-27T10:30:20;98637.75;;;21.05;42.71
35489;BME280;21602;55.670;37.578;2023-04-27T10:32:51;98638.22;;;21.33;42.74
35489;BME280;21602;55.670;37.578;2023-04-27T10:35:18;98649.88;;;21.51;42.89
35489;BME280;21602;55.670;37.578;2023-04-27T10:37:46;98641.03;;;21.63;41.72
35489;BME280;21602;55.670;37.578;2023-04-27T10:40:13;98643.47;;;21.56;41.02
35489;BME280;21602;55.670;37.578;2023-04-27T10:42:45;98644.28;;;21.47;40.78
35489;BME280;21602;55.670;37.578;2023-04-27T10:45:25;98647.00;;;21.47;41.15
35489;BME280;21602;55.670;37.578;2023-04-27T10:47:57;98647.94;;;21.52;41.09
35489;BME280;21602;55.670;37.578;2023-04-27T10:50:24;98647.44;;;21.50;41.35
35489;BME280;21602;55.670;37.578;2023-04-27T10:52:50;98653.22;;;21.39;42.05
35489;BME280;21602;55.670;37.578;2023-04-27T10:55:18;98652.56;;;21.25;42.64
35489;BME280;21602;55.670;37.578;2023-04-27T10:57:50;98655.91;;;20.79;43.84
35489;BME280;21602;55.670;37.578;2023-04-27T11:00:39;98672.19;;;20.30;45.37
35489;BME280;21602;55.670;37.578;2023-04-27T11:03:17;98677.47;;;19.95;46.25
35489;BME280;21602;55.670;37.578;2023-04-27T11:05:45;98682.06;;;19.64;48.04
35489;BME280;21602;55.670;37.578;2023-04-27T11:08:16;98688.31;;;19.51;47.36
35489;BME280;21602;55.670;37.578;2023-04-27T11:10:47;98683.34;;;19.44;47.61
35489;BME280;21602;55.670;37.578;2023-04-27T11:13:17;98686.50;;;19.60;47.60
35489;BME280;21602;55.670;37.578;2023-04-27T11:18:15;98685.56;;;20.27;47.14
35489;BME280;21602;55.670;37.578;2023-04-27T11:20:46;98681.50;;;20.46;46.49
35489;BME280;21602;55.670;37.578;2023-04-27T11:23:29;98682.38;;;20.64;46.24
35489;BME280;21602;55.670;37.578;2023-04-27T11:26:27;98683.19;;;20.74;46.14
35489;BME280;21602;55.670;37.578;2023-04-27T11:29:03;98685.75;;;20.79;45.69
35489;BME280;21602;55.670;37.578;2023-04-27T11:34:05;98678.13;;;20.89;45.12
35489;BME280;21602;55.670;37.578;2023-04-27T11:36:31;98681.13;;;20.88;45.23
35489;BME280;21602;55.670;37.578;2023-04-27T11:38:57;98675.41;;;20.89;44.83
35489;BME280;21602;55.670;37.578;2023-04-27T11:41:34;98680.34;;;21.05;44.86
35489;BME280;21602;55.670;37.578;2023-04-27T11:44:06;98676.84;;;21.21;44.97
35489;BME280;21602;55.670;37.578;2023-04-27T11:46:33;98677.31;;;21.41;44.39
35489;BME280;21602;55.670;37.578;2023-04-27T11:49:05;98667.44;;;21.45;43.91
35489;BME280;21602;55.670;37.578;2023-04-27T11:51:33;98666.34;;;21.46;44.01
35489;BME280;21602;55.670;37.578;2023-04-27T11:54:06;98667.75;;;21.61;43.61
35489;BME280;21602;55.670;37.578;2023-04-27T11:56:37;98656.03;;;21.78;43.51
35489;BME280;21602;55.670;37.578;2023-04-27T11:59:03;98656.16;;;21.90;43.16
35489;BME280;21602;55.670;37.578;2023-04-27T12:01:33;98654.25;;;21.82;43.33
35489;BME280;21602;55.670;37.578;2023-04-27T12:04:00;98651.25;;;21.75;43.14
35489;BME280;21602;55.670;37.578;2023-04-27T12:06:28;98647.25;;;21.72;43.41
35489;BME280;21602;55.670;37.578;2023-04-27T12:08:57;98656.09;;;21.52;43.74
35489;BME280;21602;55.670;37.578;2023-04-27T12:11:25;98648.56;;;21.48;44.19
35489;BME280;21602;55.670;37.578;2023-04-27T12:13:53;98658.47;;;21.44;43.80
35489;BME280;21602;55.670;37.578;2023-04-27T12:16:19;98650.34;;;21.36;44.13
35489;BME280;21602;55.670;37.578;2023-04-27T12:18:49;98647.63;;;21.27;43.90
35489;BME280;21602;55.670;37.578;2023-04-27T12:21:16;98645.88;;;21.14;44.35
35489;BME280;21602;55.670;37.578;2023-04-27T12:23:42;98642.84;;;21.15;44.31
35489;BME280;21602;55.670;37.578;2023-04-27T12:26:08;98644.44;;;21.25;44.30
35489;BME280;21602;55.670;37.578;2023-04-27T12:28:34;98643.97;;;21.40;44.62
35489;BME280;21602;55.670;37.578;2023-04-27T12:31:04;98638.34;;;21.54;44.21
35489;BME280;21602;55.670;37.578;2023-04-27T12:33:35;98647.75;;;21.65;44.37
35489;BME280;21602;55.670;37.578;2023-04-27T12:36:01;98639.56;;;21.74;43.99
35489;BME280;21602;55.670;37.578;2023-04-27T12:38:27;98632.06;;;21.80;43.78
35489;BME280;21602;55.670;37.578;2023-04-27T12:40:53;98635.06;;;21.87;43.83
35489;BME280;21602;55.670;37.578;2023-04-27T12:43:19;98626.88;;;21.95;43.50
35489;BME280;21602;55.670;37.578;2023-04-27T12:45:45;98629.22;;;22.06;43.48
35489;BME280;21602;55.670;37.578;2023-04-27T12:48:13;98630.34;;;22.05;42.15
35489;BME280;21602;55.670;37.578;2023-04-27T12:50:40;98635.78;;;22.05;42.09
35489;BME280;21602;55.670;37.578;2023-04-27T12:53:06;98626.34;;;22.02;41.12
35489;BME280;21602;55.670;37.578;2023-04-27T12:55:32;98625.28;;;21.94;40.71
35489;BME280;21602;55.670;37.578;2023-04-27T12:57:58;98630.91;;;21.89;40.72
35489;BME280;21602;55.670;37.578;2023-04-27T13:00:24;98630.25;;;21.84;40.96
35489;BME280;21602;55.670;37.578;2023-04-27T13:02:51;98626.13;;;21.78;40.95
35489;BME280;21602;55.670;37.578;2023-04-27T13:05:17;98620.91;;;21.64;40.60